Time;durP1;ratioP1;P1;durP2;ratioP2;P2;SDS_P1;SDS_P2;PMS_P1;PMS_P2;Temp;Humidity;BMP_temperature;BMP_pressure;BME280_temperature;BME280_humidity;BME280_pressure;Samples;Min_cycle;Max_cycle;Signal;HPM_P1;HPM_P2
2021/06/12 00:00:30;;;;;;;26.07;14.40;;;;;;;15.64;78.99;99095.94;1832863;77;21015;-76
2021/06/12 00:02:55;;;;;;;27.07;14.85;;;;;;;15.65;78.94;99098.34;1830355;77;20943;-75
2021/06/12 00:05:22;;;;;;;27.22;14.00;;;;;;;15.64;78.88;99096.75;1837319;77;20879;-74
2021/06/12 00:07:48;;;;;;;31.87;14.58;;;;;;;15.63;78.81;99099.86;1833810;77;21015;-77
2021/06/12 00:10:21;;;;;;;25.95;15.03;;;;;;;15.57;78.85;99093.81;1830634;77;21496;-74
2021/06/12 00:12:49;;;;;;;24.13;14.27;;;;;;;15.39;79.01;99092.84;1831258;77;21462;-74
2021/06/12 00:15:19;;;;;;;23.87;14.13;;;;;;;15.29;79.83;99087.85;1826172;77;21512;-75
2021/06/12 00:17:45;;;;;;;25.95;13.88;;;;;;;15.33;79.71;99084.58;1832444;77;21010;-75
2021/06/12 00:20:22;;;;;;;24.00;13.15;;;;;;;15.36;79.42;99084.42;1755196;81;21024;-75
2021/06/12 00:22:48;;;;;;;28.73;13.35;;;;;;;15.39;79.32;99085.08;1764421;80;21130;-75
2021/06/12 00:25:16;;;;;;;20.37;13.62;;;;;;;15.35;79.30;99078.67;1754120;81;21072;-76
2021/06/12 00:27:43;;;;;;;22.37;13.68;;;;;;;15.29;79.76;99080.91;1767030;80;21019;-75
2021/06/12 00:30:11;;;;;;;22.52;13.50;;;;;;;15.32;80.11;99074.63;1771085;80;20993;-75
2021/06/12 00:32:37;;;;;;;25.20;14.45;;;;;;;15.37;79.95;99072.17;1830844;77;21050;-75
2021/06/12 00:35:06;;;;;;;23.12;13.32;;;;;;;15.39;79.79;99072.59;1833163;77;21302;-75
2021/06/12 00:37:33;;;;;;;22.22;12.82;;;;;;;15.42;79.62;99074.66;1833226;77;21015;-76
2021/06/12 00:40:00;;;;;;;27.17;13.65;;;;;;;15.43;79.43;99065.16;1830472;77;21480;-74
2021/06/12 00:42:26;;;;;;;23.62;14.07;;;;;;;15.44;78.98;99074.51;1834875;77;21057;-75
2021/06/12 00:44:53;;;;;;;20.08;14.03;;;;;;;15.43;78.83;99076.27;1830994;77;21046;-74
2021/06/12 00:47:19;;;;;;;23.05;14.65;;;;;;;15.41;79.04;99078.02;1754744;80;22057;-74
2021/06/12 00:49:46;;;;;;;22.50;13.68;;;;;;;15.42;78.83;99074.66;1756331;81;20992;-74
2021/06/12 00:52:12;;;;;;;21.90;14.43;;;;;;;15.31;78.75;99075.23;1769461;80;21061;-74
2021/06/12 00:54:39;;;;;;;23.02;12.82;;;;;;;15.17;78.85;99076.30;1793384;79;21032;-73
2021/06/12 00:57:07;;;;;;;24.63;13.45;;;;;;;14.99;79.28;99078.67;1794813;79;21515;-75
2021/06/12 00:59:33;;;;;;;21.62;13.28;;;;;;;14.88;79.90;99075.63;1793863;79;21131;-75
2021/06/12 01:01:59;;;;;;;25.00;12.65;;;;;;;14.86;80.44;99078.77;1839345;77;21042;-75
2021/06/12 01:04:27;;;;;;;22.00;12.68;;;;;;;14.93;80.71;99076.75;1812312;77;21642;-75
2021/06/12 01:06:53;;;;;;;34.65;14.75;;;;;;;15.02;80.46;99077.94;1778530;79;21547;-75
2021/06/12 01:09:25;;;;;;;22.13;12.82;;;;;;;15.08;79.93;99082.06;1792923;79;21032;-75
2021/06/12 01:12:04;;;;;;;20.90;12.70;;;;;;;15.11;79.60;99082.73;1841183;77;22471;-75
2021/06/12 01:14:35;;;;;;;25.05;13.80;;;;;;;15.13;79.38;99080.38;1838041;77;21108;-75
2021/06/12 01:17:09;;;;;;;24.20;13.22;;;;;;;15.11;79.19;99087.46;1811853;77;22100;-75
2021/06/12 01:19:48;;;;;;;;;;;;;;;15.00;79.47;99085.81;1839990;77;21006;-75
2021/06/12 01:22:20;;;;;;;21.02;12.75;;;;;;;15.00;79.84;99080.27;1837785;77;20203;-75
2021/06/12 01:25:06;;;;;;;27.75;13.32;;;;;;;15.02;79.43;99079.33;1832825;77;21905;-75
2021/06/12 01:27:55;;;;;;;24.80;12.73;;;;;;;15.03;79.52;99072.63;1766116;80;21497;-75
2021/06/12 01:30:26;;;;;;;21.80;13.95;;;;;;;15.05;79.40;99078.61;1802925;78;21031;-75
2021/06/12 01:33:08;;;;;;;21.85;13.43;;;;;;;14.91;79.21;99076.33;1805976;78;21485;-75
2021/06/12 01:35:50;;;;;;;19.95;13.38;;;;;;;14.73;80.16;99071.94;1782906;79;21023;-74
2021/06/12 01:38:28;;;;;;;21.95;12.95;;;;;;;14.71;80.10;99075.64;1809559;78;21131;-75
2021/06/12 01:41:05;;;;;;;20.37;12.95;;;;;;;14.62;80.33;99075.61;1841597;77;21010;-75
2021/06/12 01:43:35;;;;;;;23.42;12.18;;;;;;;14.53;80.69;99086.87;1836498;77;21002;-75
2021/06/12 01:46:01;;;;;;;18.77;12.03;;;;;;;14.50;80.96;99087.59;1763376;80;21489;-75
2021/06/12 01:48:28;;;;;;;21.52;12.73;;;;;;;14.48;81.07;99086.56;1792915;79;20988;-76
2021/06/12 01:50:57;;;;;;;23.32;12.20;;;;;;;14.44;81.61;99082.88;1809773;77;21096;-75
2021/06/12 01:53:30;;;;;;;21.42;12.45;;;;;;;14.52;81.87;99083.28;1818438;77;21039;-75
2021/06/12 01:55:51;;;;;;;26.10;13.15;;;;;;;14.63;81.48;99076.63;1828188;77;20991;-75
2021/06/12 01:58:22;;;;;;;19.82;12.33;;;;;;;14.70;80.83;99082.93;1825072;77;21026;-74
2021/06/12 02:00:49;;;;;;;20.65;12.70;;;;;;;14.75;80.57;99080.46;1791706;77;21018;-75
2021/06/12 02:03:16;;;;;;;19.77;12.18;;;;;;;14.78;80.59;99079.16;1825392;77;21121;-74
2021/06/12 02:05:43;;;;;;;23.87;13.25;;;;;;;14.79;80.34;99080.77;1820380;77;21030;-74
2021/06/12 02:08:10;;;;;;;25.57;12.37;;;;;;;14.72;80.10;99082.00;1826825;77;20980;-74
2021/06/12 02:10:39;;;;;;;20.23;12.30;;;;;;;14.63;80.55;99083.56;1756725;80;21083;-74
2021/06/12 02:13:06;;;;;;;20.55;11.73;;;;;;;14.63;80.46;99077.20;1755705;81;21529;-74
2021/06/12 02:15:32;;;;;;;24.02;11.78;;;;;;;14.60;80.75;99081.52;1755759;81;21129;-74
2021/06/12 02:18:08;;;;;;;18.25;11.90;;;;;;;14.65;80.70;99086.79;1754272;81;21698;-75
2021/06/12 02:20:36;;;;;;;18.80;12.18;;;;;;;14.72;80.46;99083.39;1755533;80;21561;-74
2021/06/12 02:23:05;;;;;;;26.00;12.15;;;;;;;14.79;80.26;99089.08;1765811;80;21612;-74
2021/06/12 02:25:31;;;;;;;25.52;13.25;;;;;;;14.86;79.94;99091.85;1767152;80;21078;-74
2021/06/12 02:28:06;;;;;;;24.07;12.07;;;;;;;14.90;79.76;99095.50;1766410;80;21214;-74
2021/06/12 02:30:36;;;;;;;17.30;11.70;;;;;;;14.89;79.41;99096.10;1768017;80;21377;-74
2021/06/12 02:33:05;;;;;;;19.80;12.25;;;;;;;14.82;79.35;99091.77;1769335;80;21035;-74
2021/06/12 02:35:33;;;;;;;21.20;11.15;;;;;;;14.74;79.65;99094.90;1767806;80;21497;-74
2021/06/12 02:37:59;;;;;;;14.65;11.05;;;;;;;14.77;80.00;99094.78;1769194;80;21537;-74
2021/06/12 02:40:27;;;;;;;17.55;11.12;;;;;;;14.78;79.80;99098.58;1766820;80;21984;-74
2021/06/12 02:42:55;;;;;;;20.77;10.98;;;;;;;14.76;79.99;99104.24;1766257;80;21000;-74
2021/06/12 02:45:24;;;;;;;22.10;12.00;;;;;;;14.77;80.17;99106.69;1766408;80;20992;-74
2021/06/12 02:47:54;;;;;;;18.02;12.15;;;;;;;14.71;80.43;99108.09;1755869;80;20989;-74
2021/06/12 02:50:22;;;;;;;16.32;10.70;;;;;;;14.65;80.91;99107.58;1769789;80;20988;-74
2021/06/12 02:52:49;;;;;;;19.02;13.05;;;;;;;14.69;81.58;99109.03;1758584;79;21074;-74
2021/06/12 02:55:16;;;;;;;19.12;12.03;;;;;;;14.81;81.67;99109.55;1773909;79;21568;-74
2021/06/12 02:57:47;;;;;;;22.60;12.40;;;;;;;14.92;81.60;99115.36;1769472;80;21019;-75
2021/06/12 03:00:16;;;;;;;24.12;12.35;;;;;;;15.02;81.29;99119.55;1768839;80;21035;-75
2021/06/12 03:02:43;;;;;;;18.37;11.33;;;;;;;15.06;81.28;99112.92;1766486;79;21035;-74
2021/06/12 03:05:16;;;;;;;17.15;11.20;;;;;;;15.11;81.37;99112.43;1768683;80;21134;-74
2021/06/12 03:07:49;;;;;;;30.02;13.08;;;;;;;15.17;81.20;99112.36;1770019;80;21066;-74
2021/06/12 03:10:17;;;;;;;16.50;11.70;;;;;;;15.19;81.38;99117.79;1769083;80;21040;-74
2021/06/12 03:12:46;;;;;;;20.35;10.93;;;;;;;15.25;81.39;99111.96;1766589;80;21078;-75
2021/06/12 03:15:13;;;;;;;18.50;11.30;;;;;;;15.31;81.32;99116.87;1768131;80;21031;-75
2021/06/12 03:17:39;;;;;;;17.17;10.80;;;;;;;15.40;81.26;99110.30;1769509;80;21187;-74
2021/06/12 03:20:08;;;;;;;14.10;10.72;;;;;;;15.48;81.13;99110.67;1749712;80;21063;-74
2021/06/12 03:22:35;;;;;;;19.95;12.47;;;;;;;15.57;81.10;99114.03;1753860;80;21051;-75
2021/06/12 03:25:04;;;;;;;21.87;12.80;;;;;;;15.67;80.96;99114.63;1765326;80;21051;-74
2021/06/12 03:27:30;;;;;;;22.65;12.63;;;;;;;15.73;81.01;99120.11;1766391;80;20996;-74
2021/06/12 03:29:57;;;;;;;18.90;13.45;;;;;;;15.77;80.93;99123.78;1766994;80;21633;-74
2021/06/12 03:32:24;;;;;;;22.00;13.18;;;;;;;15.86;80.90;99126.92;1756678;80;21024;-74
2021/06/12 03:34:50;;;;;;;20.88;13.75;;;;;;;15.90;80.95;99127.20;1767509;80;21517;-74
2021/06/12 03:37:19;;;;;;;26.45;14.73;;;;;;;15.97;80.92;99127.92;1766852;80;20968;-74
2021/06/12 03:39:47;;;;;;;28.50;15.00;;;;;;;16.06;80.81;99127.16;1764600;80;21562;-74
2021/06/12 03:42:14;;;;;;;18.82;13.65;;;;;;;16.14;80.69;99131.45;1767782;80;21085;-74
2021/06/12 03:44:40;;;;;;;26.15;16.67;;;;;;;16.21;80.57;99135.77;1766380;80;21055;-74
2021/06/12 03:47:07;;;;;;;31.25;14.73;;;;;;;16.27;80.36;99128.75;1763145;80;20991;-74
2021/06/12 03:49:34;;;;;;;26.70;16.32;;;;;;;16.33;80.12;99125.06;1768032;80;21564;-74
2021/06/12 03:52:00;;;;;;;27.58;17.05;;;;;;;16.39;80.16;99120.80;1773639;78;20973;-74
2021/06/12 03:54:27;;;;;;;24.15;15.78;;;;;;;16.43;80.24;99123.06;1772574;80;21104;-73
2021/06/12 03:56:54;;;;;;;27.40;16.15;;;;;;;16.47;80.56;99128.69;1768218;80;21505;-74
2021/06/12 03:59:22;;;;;;;31.07;16.20;;;;;;;16.52;80.66;99128.97;1766688;80;21027;-74
2021/06/12 04:01:50;;;;;;;24.67;14.25;;;;;;;16.55;80.81;99137.38;1758077;80;20973;-74
2021/06/12 04:04:17;;;;;;;25.50;14.47;;;;;;;16.58;80.87;99134.42;1768870;80;21030;-74
2021/06/12 04:06:43;;;;;;;22.87;13.55;;;;;;;16.64;80.93;99132.16;1766349;80;21126;-74
2021/06/12 04:09:10;;;;;;;20.48;13.35;;;;;;;16.70;80.74;99135.44;1768485;80;21015;-73
2021/06/12 04:11:36;;;;;;;25.40;13.22;;;;;;;16.79;80.86;99134.00;1765638;80;21536;-74
2021/06/12 04:14:03;;;;;;;17.10;12.63;;;;;;;16.91;81.03;99137.18;1769578;80;20985;-74
2021/06/12 04:16:30;;;;;;;25.20;14.90;;;;;;;17.01;80.85;99141.30;1767502;79;21079;-74
2021/06/12 04:18:56;;;;;;;20.00;13.40;;;;;;;17.12;81.13;99147.66;1767361;80;21311;-74
2021/06/12 04:21:22;;;;;;;24.20;13.32;;;;;;;17.21;81.22;99146.01;1770097;80;21036;-74
2021/06/12 04:23:49;;;;;;;23.55;14.93;;;;;;;17.30;81.45;99152.09;1767047;80;22112;-74
2021/06/12 04:26:15;;;;;;;22.60;13.08;;;;;;;17.37;81.45;99142.46;1767918;80;21020;-73
2021/06/12 04:28:43;;;;;;;23.42;12.68;;;;;;;17.45;81.31;99146.14;1769655;80;21023;-74
2021/06/12 04:31:09;;;;;;;19.30;12.47;;;;;;;17.52;81.39;99153.20;1766853;80;21563;-74
2021/06/12 04:33:37;;;;;;;18.32;12.18;;;;;;;17.60;81.52;99151.92;1767772;78;20984;-73
2021/06/12 04:36:05;;;;;;;19.35;12.15;;;;;;;17.68;81.49;99159.19;1769854;80;20999;-74
2021/06/12 04:38:31;;;;;;;23.30;11.80;;;;;;;17.75;81.31;99159.30;1767485;80;21019;-74
2021/06/12 04:40:58;;;;;;;18.85;12.53;;;;;;;17.82;80.75;99158.58;1767519;80;20987;-73
2021/06/12 04:43:26;;;;;;;19.00;10.32;;;;;;;17.87;80.57;99158.25;1769381;80;20996;-75
2021/06/12 04:45:52;;;;;;;17.00;9.15;;;;;;;17.87;80.92;99157.44;1766529;80;21024;-74
2021/06/12 04:48:19;;;;;;;18.50;9.35;;;;;;;17.89;80.89;99164.23;1766701;80;21509;-74
2021/06/12 04:50:46;;;;;;;11.43;8.93;;;;;;;17.93;80.97;99157.92;1769261;80;21504;-73
2021/06/12 04:53:13;;;;;;;15.30;9.53;;;;;;;17.98;80.44;99158.98;1766274;80;21046;-74
2021/06/12 04:59:00;;;;;;;14.83;8.43;;;;;;;18.08;80.55;99153.31;1732472;81;20991;-73
2021/06/12 05:01:27;;;;;;;13.68;8.05;;;;;;;18.16;80.17;99153.64;1730536;81;21552;-73
2021/06/12 05:03:53;;;;;;;10.80;7.50;;;;;;;18.27;80.09;99150.95;1722098;83;21062;-75
2021/06/12 05:06:20;;;;;;;16.07;8.53;;;;;;;18.38;79.75;99149.68;1725194;81;21035;-74
2021/06/12 05:08:46;;;;;;;12.07;7.15;;;;;;;18.49;79.04;99150.58;1738454;81;21282;-73
2021/06/12 05:11:13;;;;;;;19.02;7.72;;;;;;;18.60;78.67;99147.09;1738653;81;20968;-73
2021/06/12 05:13:39;;;;;;;15.08;8.65;;;;;;;18.69;78.22;99146.20;1737208;81;21536;-74
2021/06/12 05:16:06;;;;;;;15.58;9.68;;;;;;;18.73;77.75;99151.20;1735949;81;21058;-73
2021/06/12 05:18:44;;;;;;;18.80;8.13;;;;;;;18.76;77.44;99148.84;1738041;81;21051;-75
2021/06/12 05:21:01;;;;;;;18.02;7.25;;;;;;;18.81;76.63;99149.88;1735614;80;21556;-75
2021/06/12 05:23:29;;;;;;;9.23;5.17;;;;;;;18.80;76.43;99149.68;1733758;81;21089;-74
2021/06/12 05:25:56;;;;;;;9.18;5.20;;;;;;;18.87;76.21;99151.73;1736749;81;20992;-74
2021/06/12 05:28:22;;;;;;;7.83;4.30;;;;;;;18.94;75.44;99152.58;1734075;81;21044;-75
2021/06/12 05:30:49;;;;;;;4.25;3.85;;;;;;;18.97;74.34;99158.78;1734493;81;21003;-75
2021/06/12 05:33:16;;;;;;;7.03;3.90;;;;;;;18.98;73.72;99156.21;1738198;81;21389;-74
2021/06/12 05:35:42;;;;;;;4.28;3.87;;;;;;;19.05;73.71;99154.66;1735606;81;21070;-74
2021/06/12 05:38:09;;;;;;;4.22;3.83;;;;;;;19.09;73.31;99152.67;1736431;81;21059;-73
2021/06/12 05:40:35;;;;;;;7.03;3.62;;;;;;;19.11;72.80;99154.52;1735737;81;21011;-74
2021/06/12 05:43:03;;;;;;;6.80;4.00;;;;;;;19.21;73.15;99161.36;1733635;81;20992;-75
2021/06/12 05:45:29;;;;;;;3.52;2.83;;;;;;;19.29;72.44;99151.06;1737123;81;21493;-74
2021/06/12 05:47:56;;;;;;;4.10;2.87;;;;;;;19.34;70.78;99155.67;1726213;81;21071;-75
2021/06/12 05:50:22;;;;;;;3.60;2.80;;;;;;;19.36;70.67;99143.33;1739094;81;20999;-75
2021/06/12 05:52:49;;;;;;;8.60;3.00;;;;;;;19.43;70.83;99152.54;1728814;81;21058;-75
2021/06/12 05:55:20;;;;;;;8.05;3.35;;;;;;;19.42;68.48;99154.33;1732700;81;21598;-75
2021/06/12 05:57:46;;;;;;;5.92;2.85;;;;;;;19.42;68.90;99150.95;1735075;81;21301;-77
2021/06/12 06:00:13;;;;;;;3.02;2.72;;;;;;;19.49;68.36;99150.77;1736113;81;21019;-77
2021/06/12 06:02:39;;;;;;;6.70;2.85;;;;;;;19.52;68.22;99151.39;1733182;79;21090;-75
2021/06/12 06:05:07;;;;;;;3.65;2.95;;;;;;;19.58;68.21;99146.44;1739085;81;21597;-75
2021/06/12 06:07:33;;;;;;;7.20;2.70;;;;;;;19.63;67.00;99138.88;1736949;81;20988;-74
2021/06/12 06:10:00;;;;;;;5.87;2.72;;;;;;;19.62;66.00;99140.09;1737365;81;21583;-77
2021/06/12 06:12:29;;;;;;;5.25;3.12;;;;;;;19.65;66.48;99142.09;1739158;81;21492;-76
2021/06/12 06:14:56;;;;;;;10.78;3.27;;;;;;;19.72;66.98;99139.93;1736953;81;20999;-75
2021/06/12 06:17:23;;;;;;;4.47;3.08;;;;;;;19.81;66.51;99141.16;1736726;81;21449;-77
2021/06/12 06:19:50;;;;;;;10.13;2.85;;;;;;;19.87;67.11;99142.19;1739341;81;21022;-74
2021/06/12 06:22:16;;;;;;;11.38;3.75;;;;;;;19.95;67.34;99141.83;1737245;81;21976;-77
2021/06/12 06:24:42;;;;;;;4.50;3.20;;;;;;;19.98;65.54;99140.22;1737103;81;21047;-74
2021/06/12 06:27:09;;;;;;;5.47;3.60;;;;;;;20.03;65.59;99150.22;1738997;79;21089;-75
2021/06/12 06:29:35;;;;;;;9.30;3.37;;;;;;;20.03;64.47;99141.83;1737327;81;21047;-75
2021/06/12 06:32:02;;;;;;;6.53;3.67;;;;;;;20.02;65.35;99143.04;1737071;81;21528;-76
2021/06/12 06:34:29;;;;;;;7.20;3.42;;;;;;;20.03;65.83;99141.24;1739363;81;22133;-76
2021/06/12 06:36:56;;;;;;;4.83;3.30;;;;;;;20.14;66.47;99142.72;1737108;81;21011;-75
2021/06/12 06:39:22;;;;;;;6.65;3.50;;;;;;;20.31;67.13;99143.15;1737046;81;20976;-75
2021/06/12 06:41:49;;;;;;;4.05;3.55;;;;;;;20.41;66.97;99145.77;1739355;81;21027;-76
2021/06/12 06:44:16;;;;;;;9.70;3.72;;;;;;;20.44;66.28;99143.56;1737042;81;20991;-74
2021/06/12 06:46:44;;;;;;;6.22;3.80;;;;;;;20.39;63.51;99146.75;1736783;81;21069;-75
2021/06/12 06:49:11;;;;;;;6.37;4.25;;;;;;;20.23;63.87;99147.94;1739440;81;20995;-76
2021/06/12 06:51:37;;;;;;;8.10;3.40;;;;;;;20.20;64.29;99145.91;1736914;81;21531;-78
2021/06/12 06:54:05;;;;;;;5.15;4.05;;;;;;;20.26;64.79;99148.54;1736392;81;21007;-77
2021/06/12 06:56:31;;;;;;;12.85;5.15;;;;;;;20.30;64.97;99147.94;1739620;79;21505;-76
2021/06/12 06:58:58;;;;;;;8.68;3.37;;;;;;;20.43;65.03;99144.77;1737168;81;22018;-76
2021/06/12 07:01:24;;;;;;;4.30;3.22;;;;;;;20.61;65.02;99143.39;1736525;81;21010;-75
2021/06/12 07:03:50;;;;;;;4.85;3.42;;;;;;;20.77;64.41;99143.61;1739374;81;21114;-75
2021/06/12 07:06:17;;;;;;;5.92;3.87;;;;;;;20.82;62.86;99143.21;1736971;81;21121;-78
2021/06/12 07:08:43;;;;;;;6.65;3.55;;;;;;;20.83;62.62;99142.62;1737272;81;21508;-76
2021/06/12 07:11:10;;;;;;;6.87;3.40;;;;;;;20.91;63.16;99149.20;1739448;81;21245;-79
2021/06/12 07:13:36;;;;;;;4.03;3.62;;;;;;;21.06;63.72;99147.83;1736759;81;21572;-76
2021/06/12 07:16:05;;;;;;;4.47;3.60;;;;;;;21.20;61.65;99143.42;1736846;81;21059;-74
2021/06/12 07:18:32;;;;;;;8.18;4.30;;;;;;;21.25;61.29;99148.61;1739362;81;21501;-75
2021/06/12 07:20:58;;;;;;;5.53;3.92;;;;;;;21.24;61.05;99148.42;1737667;81;21035;-77
2021/06/12 07:23:24;;;;;;;5.55;4.00;;;;;;;21.28;61.14;99139.40;1736884;81;21150;-76
2021/06/12 07:25:51;;;;;;;11.80;3.90;;;;;;;21.39;62.05;99140.79;1739244;81;21597;-76
2021/06/12 07:28:18;;;;;;;5.15;4.15;;;;;;;21.52;62.02;99143.95;1737368;81;21504;-74
2021/06/12 07:30:45;;;;;;;5.45;3.80;;;;;;;21.55;62.19;99143.73;1736634;79;21084;-76
2021/06/12 07:33:13;;;;;;;9.38;3.25;;;;;;;21.58;61.92;99140.92;1739414;81;21023;-74
2021/06/12 07:35:41;;;;;;;5.80;4.45;;;;;;;21.68;62.29;99137.91;1737665;81;21110;-77
2021/06/12 07:38:07;;;;;;;4.62;3.92;;;;;;;21.83;62.51;99142.08;1731942;81;21074;-75
2021/06/12 07:40:34;;;;;;;5.87;3.60;;;;;;;21.95;61.23;99141.63;1733990;81;21035;-74
2021/06/12 07:43:00;;;;;;;4.00;3.47;;;;;;;22.00;62.06;99138.41;1739858;81;21141;-75
2021/06/12 07:45:26;;;;;;;5.83;3.67;;;;;;;22.06;61.40;99142.97;1740787;81;20968;-74
2021/06/12 07:47:53;;;;;;;4.20;3.80;;;;;;;21.97;61.13;99144.02;1733284;81;22147;-75
2021/06/12 07:50:19;;;;;;;5.62;4.20;;;;;;;21.88;59.84;99138.85;1737926;81;21039;-74
2021/06/12 07:52:45;;;;;;;4.35;3.80;;;;;;;21.82;60.85;99141.27;1739617;80;20860;-75
2021/06/12 07:55:13;;;;;;;8.25;4.30;;;;;;;21.94;62.52;99141.42;1732898;81;20960;-75
2021/06/12 07:57:41;;;;;;;5.70;3.80;;;;;;;22.09;61.79;99138.56;1738188;81;21437;-76
2021/06/12 08:00:10;;;;;;;5.42;3.98;;;;;;;22.28;61.62;99137.23;1738661;81;21316;-76
2021/06/12 08:02:39;;;;;;;4.33;3.90;;;;;;;22.48;60.27;99143.73;1739372;81;20884;-75
2021/06/12 08:05:06;;;;;;;9.18;4.10;;;;;;;22.61;60.44;99137.86;1738825;81;20931;-75
2021/06/12 08:07:33;;;;;;;5.45;4.10;;;;;;;22.77;60.08;99139.35;1734436;81;20948;-74
2021/06/12 08:10:02;;;;;;;4.53;3.42;;;;;;;22.94;59.97;99136.80;1736895;81;20908;-77
2021/06/12 08:12:30;;;;;;;6.25;4.08;;;;;;;23.10;60.21;99133.43;1737413;81;20852;-77
2021/06/12 08:14:59;;;;;;;7.33;4.08;;;;;;;23.18;58.10;99132.77;1736803;81;21470;-76
2021/06/12 08:17:25;;;;;;;6.83;4.45;;;;;;;23.17;57.85;99144.61;1738232;81;20881;-75
2021/06/12 08:19:52;;;;;;;8.78;3.58;;;;;;;23.19;57.79;99143.59;1736904;81;20884;-75
2021/06/12 08:22:18;;;;;;;7.28;4.10;;;;;;;23.15;56.34;99142.04;1737244;81;20943;-73
2021/06/12 08:24:44;;;;;;;4.95;3.62;;;;;;;23.01;53.66;99140.16;1736383;81;21158;-75
2021/06/12 08:27:11;;;;;;;4.55;3.90;;;;;;;22.94;55.79;99147.44;1738846;81;21430;-74
2021/06/12 08:29:37;;;;;;;4.42;3.55;;;;;;;22.81;55.30;99143.54;1739082;81;20920;-74
2021/06/12 08:32:05;;;;;;;4.58;3.50;;;;;;;22.74;56.29;99143.77;1738438;81;20892;-74
2021/06/12 08:34:31;;;;;;;4.80;3.72;;;;;;;22.68;56.15;99138.41;1738727;81;21473;-74
2021/06/12 08:37:00;;;;;;;5.97;3.35;;;;;;;22.63;56.14;99133.23;1735354;81;21091;-73
2021/06/12 08:39:26;;;;;;;3.90;3.50;;;;;;;22.72;57.72;99136.98;1738302;81;21465;-75
2021/06/12 08:41:52;;;;;;;5.20;3.98;;;;;;;22.88;55.00;99134.26;1739446;81;20924;-75
2021/06/12 08:44:19;;;;;;;8.80;3.60;;;;;;;22.96;55.77;99133.75;1739343;81;21501;-76
2021/06/12 08:46:46;;;;;;;7.22;2.62;;;;;;;22.93;55.11;99133.78;1738538;81;20943;-75
2021/06/12 08:49:13;;;;;;;7.00;3.10;;;;;;;22.89;55.35;99134.44;1739333;81;21765;-79
2021/06/12 08:51:39;;;;;;;6.05;3.62;;;;;;;22.90;56.91;99140.23;1739592;81;21011;-77
2021/06/12 08:54:05;;;;;;;6.75;3.33;;;;;;;22.99;57.40;99136.36;1738469;80;20955;-76
2021/06/12 08:56:32;;;;;;;4.83;3.15;;;;;;;23.13;56.24;99131.81;1739069;79;20904;-76
2021/06/12 08:58:58;;;;;;;3.95;2.80;;;;;;;23.28;55.27;99133.27;1739372;81;21336;-76
2021/06/12 09:01:25;;;;;;;3.58;2.92;;;;;;;23.44;56.13;99127.73;1736937;81;21082;-76
2021/06/12 09:03:52;;;;;;;6.40;3.37;;;;;;;23.54;52.51;99126.78;1739214;81;20892;-74
2021/06/12 09:06:20;;;;;;;4.03;2.75;;;;;;;23.56;51.63;99127.17;1739686;81;20888;-75
2021/06/12 09:08:47;;;;;;;3.92;2.77;;;;;;;23.66;53.22;99120.45;1737312;81;21457;-73
2021/06/12 09:11:18;;;;;;;4.25;3.22;;;;;;;23.87;53.10;99119.97;1734422;81;20919;-76
2021/06/12 09:13:54;;;;;;;4.70;3.52;;;;;;;24.03;53.18;99115.95;1737627;81;21077;-72
2021/06/12 09:16:42;;;;;;;10.43;3.92;;;;;;;24.18;52.70;99119.39;1738471;81;20888;-74
2021/06/12 09:19:20;;;;;;;4.67;3.25;;;;;;;24.27;53.41;99113.84;1737320;81;20892;-74
2021/06/12 09:21:48;;;;;;;5.60;3.47;;;;;;;24.31;52.45;99117.38;1736450;81;20904;-77
2021/06/12 09:24:39;;;;;;;6.08;3.27;;;;;;;24.13;51.46;99114.20;1735808;81;21796;-74
2021/06/12 09:27:16;;;;;;;4.33;3.70;;;;;;;23.83;50.32;99123.63;1733815;81;21116;-74
2021/06/12 09:29:50;;;;;;;5.17;2.95;;;;;;;23.48;51.90;99122.84;1736920;81;20908;-78
2021/06/12 09:32:27;;;;;;;4.45;2.92;;;;;;;23.31;52.69;99118.38;1735252;81;20873;-74
2021/06/12 09:34:56;;;;;;;7.80;3.65;;;;;;;23.31;54.13;99116.98;1737898;81;20880;-74
2021/06/12 09:37:31;;;;;;;5.95;3.00;;;;;;;23.42;54.62;99117.50;1738527;81;20935;-77
2021/06/12 09:40:08;;;;;;;5.65;3.67;;;;;;;23.55;53.47;99118.56;1734595;81;21514;-76
2021/06/12 09:42:40;;;;;;;8.45;3.77;;;;;;;23.68;53.88;99114.58;1737174;81;20833;-73
2021/06/12 09:45:08;;;;;;;6.05;3.47;;;;;;;23.78;53.49;99111.44;1736853;81;20880;-72
2021/06/12 09:47:35;;;;;;;8.03;4.28;;;;;;;23.92;54.03;99104.84;1734977;81;21465;-73
2021/06/12 09:50:02;;;;;;;6.15;3.37;;;;;;;24.04;55.13;99101.27;1737510;81;20951;-74
2021/06/12 09:52:42;;;;;;;4.58;3.52;;;;;;;24.01;53.60;99097.89;1737984;81;21047;-75
2021/06/12 09:55:10;;;;;;;3.22;2.92;;;;;;;23.99;53.83;99091.28;1727345;81;20967;-78
2021/06/12 09:57:48;;;;;;;7.47;3.00;;;;;;;24.09;49.22;99088.13;1724882;81;20952;-77
2021/06/12 10:00:16;;;;;;;6.05;3.33;;;;;;;23.94;49.11;99091.75;1736972;81;20915;-74
2021/06/12 10:02:47;;;;;;;4.97;3.10;;;;;;;23.92;50.78;99087.96;1737112;81;20893;-74
2021/06/12 10:05:15;;;;;;;5.80;3.50;;;;;;;24.10;49.61;99081.30;1733209;81;21093;-76
2021/06/12 10:07:42;;;;;;;6.30;3.27;;;;;;;24.35;50.61;99080.75;1736864;81;20943;-76
2021/06/12 10:10:12;;;;;;;3.72;3.35;;;;;;;24.51;50.82;99080.91;1737634;81;22065;-76
2021/06/12 10:12:42;;;;;;;8.03;3.10;;;;;;;24.57;50.11;99082.61;1735084;81;21493;-75
2021/06/12 10:15:11;;;;;;;6.33;3.20;;;;;;;24.60;50.33;99077.53;1738810;81;21497;-75
2021/06/12 10:17:47;;;;;;;3.52;2.70;;;;;;;24.64;49.64;99076.06;1736257;81;21094;-74
2021/06/12 10:20:15;;;;;;;3.75;3.10;;;;;;;24.49;48.79;99079.13;1732620;81;20939;-75
2021/06/12 10:22:44;;;;;;;4.08;2.92;;;;;;;24.14;49.50;99076.40;1738834;81;20895;-76
2021/06/12 10:25:12;;;;;;;3.75;3.27;;;;;;;23.92;50.20;99071.69;1739333;81;20896;-77
2021/06/12 10:27:39;;;;;;;3.77;2.90;;;;;;;23.75;51.48;99067.92;1738707;81;20936;-74
2021/06/12 10:30:10;;;;;;;4.05;3.12;;;;;;;23.66;51.08;99071.25;1736413;81;21786;-74
2021/06/12 10:32:37;;;;;;;7.25;3.52;;;;;;;23.71;52.17;99052.50;1734470;81;20868;-76
2021/06/12 10:35:04;;;;;;;3.77;2.95;;;;;;;23.94;52.52;99055.19;1737133;81;20908;-75
2021/06/12 10:38:06;;;;;;;3.70;2.95;;;;;;;24.18;52.64;99052.47;1737761;81;20908;-76
2021/06/12 10:40:45;;;;;;;3.65;2.83;;;;;;;24.39;52.15;99047.73;1739580;81;20943;-77
2021/06/12 10:43:23;;;;;;;4.47;3.10;;;;;;;24.54;52.03;99045.47;1740124;81;20892;-75
2021/06/12 10:46:10;;;;;;;4.65;3.50;;;;;;;24.67;51.53;99046.45;1740005;81;20969;-76
2021/06/12 10:48:41;;;;;;;11.03;3.33;;;;;;;24.85;53.00;99043.13;1734228;81;21437;-74
2021/06/12 10:51:31;;;;;;;4.17;3.45;;;;;;;25.08;51.00;99040.14;1737990;81;21498;-76
2021/06/12 10:54:19;;;;;;;3.33;2.70;;;;;;;25.23;51.86;99047.06;1735643;81;20899;-76
2021/06/12 10:56:50;;;;;;;7.25;3.42;;;;;;;25.37;49.92;99042.36;1724361;82;21493;-77
2021/06/12 10:59:39;;;;;;;4.85;3.12;;;;;;;25.30;48.73;99036.89;1714285;81;20920;-75
2021/06/12 11:02:41;;;;;;;6.83;2.60;;;;;;;25.27;48.21;99037.93;1712795;81;20924;-77
2021/06/12 11:05:00;;;;;;;4.92;3.00;;;;;;;25.08;46.65;99031.68;1734147;81;20960;-79
2021/06/12 11:07:34;;;;;;;3.87;2.85;;;;;;;25.22;48.24;99030.59;1739387;81;20962;-78
2021/06/12 11:10:15;;;;;;;4.55;2.65;;;;;;;25.44;48.37;99033.77;1739541;81;21101;-76
2021/06/12 11:12:57;;;;;;;3.37;2.37;;;;;;;25.62;47.03;99031.19;1737880;81;20920;-77
2021/06/12 11:15:30;;;;;;;4.10;2.90;;;;;;;25.73;45.07;99021.90;1739412;81;20923;-77
2021/06/12 11:18:23;;;;;;;;;;;;;;;25.85;48.07;99022.45;1739155;81;20904;-75
2021/06/12 11:21:04;;;;;;;2.83;2.42;;;;;;;25.99;46.93;99024.95;1740924;81;20103;-75
2021/06/12 11:23:53;;;;;;;4.60;2.75;;;;;;;26.14;47.70;99013.31;1742035;81;21769;-75
2021/06/12 11:26:17;;;;;;;5.22;3.10;;;;;;;26.23;47.01;99014.12;1742339;81;21446;-75
2021/06/12 11:28:46;;;;;;;9.13;3.33;;;;;;;26.17;46.54;99020.13;1710783;81;20856;-74
2021/06/12 11:31:31;;;;;;;6.22;3.30;;;;;;;26.19;46.57;99024.69;1741870;81;20932;-75
2021/06/12 11:34:24;;;;;;;4.58;3.00;;;;;;;26.18;46.98;99015.45;1738661;81;20943;-74
2021/06/12 11:36:55;;;;;;;;;;;;;;;26.11;45.43;99016.41;1745744;81;21294;-74
2021/06/12 11:39:21;;;;;;;3.50;2.90;;;;;;;26.03;46.98;99022.66;1717370;81;20153;-76